Time;durP1;ratioP1;P1;durP2;ratioP2;P2;SDS_P1;SDS_P2;PMS_P1;PMS_P2;Temp;Humidity;BMP_temperature;BMP_pressure;BME280_temperature;BME280_humidity;BME280_pressure;Samples;Min_cycle;Max_cycle;Signal;HPM_P1;HPM_P2
2023/03/12 10:17:16;;;;;;;403.60;310.60;;;;;;;20.78;51.61;101197.31;5117965;27;20213;-48
2023/03/12 10:20:00;;;;;;;398.83;307.52;;;;;;;21.76;48.88;101200.03;5100749;28;20043;-49
2023/03/12 10:22:31;;;;;;;392.95;301.73;;;;;;;22.49;46.80;101187.91;5104859;28;20560;-50
2023/03/12 10:25:16;;;;;;;396.60;295.92;;;;;;;22.94;45.50;101181.91;5106302;28;20073;-48
2023/03/12 10:27:43;;;;;;;379.60;288.55;;;;;;;23.25;44.65;101181.69;5101578;28;20032;-48
2023/03/12 10:30:30;;;;;;;370.70;282.80;;;;;;;23.50;44.02;101181.28;5056287;28;20083;-49
2023/03/12 10:33:01;;;;;;;371.20;284.50;;;;;;;23.66;43.52;101184.19;5044687;28;20112;-50
2023/03/12 10:35:29;;;;;;;373.55;275.70;;;;;;;23.75;42.96;101176.50;5044337;28;20037;-50
2023/03/12 10:38:00;;;;;;;379.77;276.33;;;;;;;23.92;42.64;101189.00;5045728;28;20383;-49
2023/03/12 10:40:30;;;;;;;363.00;272.90;;;;;;;23.95;42.59;101186.44;5044643;28;20027;-50
2023/03/12 10:42:57;;;;;;;384.27;277.85;;;;;;;24.01;42.74;101181.31;5040490;28;20029;-50
2023/03/12 10:45:43;;;;;;;370.98;274.88;;;;;;;23.95;42.37;101187.28;5046929;28;20064;-53
2023/03/12 10:48:17;;;;;;;365.10;275.88;;;;;;;23.95;42.96;101187.28;5045254;28;20102;-50
2023/03/12 10:51:02;;;;;;;372.15;277.70;;;;;;;23.97;42.50;101190.00;5047998;28;20121;-50
2023/03/12 10:53:31;;;;;;;365.93;266.37;;;;;;;24.03;42.40;101176.09;5047800;28;20049;-52
2023/03/12 10:56:13;;;;;;;365.70;271.48;;;;;;;24.05;42.40;101172.66;5033092;28;20395;-51
2023/03/12 10:58:45;;;;;;;369.98;273.25;;;;;;;24.03;42.57;101173.50;5035459;28;20104;-50
2023/03/12 11:01:25;;;;;;;369.10;275.33;;;;;;;23.96;42.74;101164.63;5029432;28;20038;-49
2023/03/12 11:03:54;;;;;;;358.48;270.80;;;;;;;24.07;42.75;101172.69;5028249;28;20030;-49
2023/03/12 11:06:24;;;;;;;380.98;281.45;;;;;;;24.05;42.65;101167.41;5038280;28;20052;-49
2023/03/12 11:09:16;;;;;;;365.00;274.60;;;;;;;24.09;42.47;101169.22;5043372;28;20025;-48
2023/03/12 11:11:46;;;;;;;381.27;284.90;;;;;;;24.05;42.71;101163.91;5041257;28;20067;-49
2023/03/12 11:14:26;;;;;;;387.90;284.77;;;;;;;24.03;43.06;101158.63;5044602;28;20021;-48
2023/03/12 11:16:55;;;;;;;388.35;284.83;;;;;;;23.98;42.75;101157.69;5034693;28;20033;-49
2023/03/12 11:19:32;;;;;;;382.95;282.48;;;;;;;23.99;42.73;101154.22;5037363;28;20039;-48
2023/03/12 11:22:01;;;;;;;382.02;284.50;;;;;;;24.00;42.85;101153.34;5038489;28;20052;-48
2023/03/12 11:24:30;;;;;;;395.20;292.67;;;;;;;24.03;42.78;101150.78;5037978;28;20032;-48
2023/03/12 11:27:20;;;;;;;372.92;281.13;;;;;;;23.87;43.04;101115.56;5030670;28;20022;-48
2023/03/12 11:29:49;;;;;;;375.88;284.05;;;;;;;24.14;42.84;101140.47;5025180;28;20391;-48
2023/03/12 11:32:37;;;;;;;374.48;283.42;;;;;;;24.12;42.60;101136.94;5022401;28;20026;-50
2023/03/12 11:35:10;;;;;;;371.55;276.15;;;;;;;24.10;42.57;101136.00;5023244;28;20030;-52
2023/03/12 11:38:16;;;;;;;374.83;274.23;;;;;;;24.07;42.44;101138.63;5024634;28;20025;-49
2023/03/12 11:41:12;;;;;;;372.60;278.95;;;;;;;24.11;42.22;101141.31;5017752;28;20404;-49
2023/03/12 11:43:58;;;;;;;;;;;;;;;24.15;42.28;101152.69;5022743;28;20030;-50
2023/03/12 11:46:27;;;;;;;369.95;277.58;;;;;;;24.12;42.25;101137.81;5022683;28;20370;-50
2023/03/12 11:49:01;;;;;;;360.38;272.02;;;;;;;24.17;42.42;101130.03;5022370;28;20074;-48
2023/03/12 11:51:32;;;;;;;362.92;272.67;;;;;;;24.24;42.05;101121.38;5024825;28;20105;-51
2023/03/12 11:54:17;;;;;;;366.77;271.25;;;;;;;24.19;42.02;101111.69;5022949;28;20034;-50
2023/03/12 11:56:51;;;;;;;359.02;271.30;;;;;;;24.21;41.89;101116.09;5023923;28;20099;-48
2023/03/12 11:59:43;;;;;;;356.00;264.10;;;;;;;24.16;42.08;101119.53;5026393;28;20036;-49
2023/03/12 12:02:38;;;;;;;346.70;260.95;;;;;;;24.15;42.18;101117.75;5022429;28;20437;-48
2023/03/12 12:05:21;;;;;;;353.05;259.45;;;;;;;24.10;42.10;101122.91;5027907;28;20060;-49
2023/03/12 12:08:01;;;;;;;334.17;247.77;;;;;;;24.12;42.04;101123.81;5024899;28;20029;-49
2023/03/12 12:10:47;;;;;;;318.42;235.93;;;;;;;24.27;41.44;101117.94;5021538;28;20029;-52
2023/03/12 12:13:19;;;;;;;330.13;240.98;;;;;;;24.28;41.72;101117.94;5022034;28;20030;-48
2023/03/12 12:16:14;;;;;;;315.10;235.60;;;;;;;24.21;41.74;101110.88;5022997;28;20050;-51
2023/03/12 12:18:47;;;;;;;319.73;235.10;;;;;;;24.09;42.12;101118.53;5021474;28;20030;-50
2023/03/12 12:21:19;;;;;;;308.08;234.35;;;;;;;24.05;41.91;101115.00;5023524;28;20030;-52
2023/03/12 12:23:56;;;;;;;302.00;220.85;;;;;;;24.02;42.10;101107.06;5027269;28;20462;-48
2023/03/12 12:26:38;;;;;;;297.10;220.20;;;;;;;24.12;41.77;101089.75;5034202;28;20033;-48
2023/03/12 12:29:23;;;;;;;281.95;213.73;;;;;;;24.16;41.96;101074.97;5034717;28;20118;-49
2023/03/12 12:32:02;;;;;;;275.77;206.43;;;;;;;24.31;41.53;101074.28;5032751;28;20368;-49
2023/03/12 12:34:34;;;;;;;276.10;207.63;;;;;;;24.33;41.43;101065.56;5016890;28;20107;-52
2023/03/12 12:37:32;;;;;;;282.83;209.52;;;;;;;24.32;41.85;101066.44;5032957;28;20037;-48
2023/03/12 12:40:20;;;;;;;281.65;205.50;;;;;;;24.31;41.29;101048.06;5033565;28;20029;-52
2023/03/12 12:43:27;;;;;;;268.65;199.00;;;;;;;24.23;41.97;101047.97;5027794;28;20037;-48
2023/03/12 12:46:00;;;;;;;277.60;201.73;;;;;;;24.31;41.50;101037.56;5024022;28;20049;-49
2023/03/12 12:49:07;;;;;;;263.98;197.75;;;;;;;24.34;41.48;101033.25;5033557;28;20033;-48
2023/03/12 12:51:39;;;;;;;271.83;200.15;;;;;;;24.42;41.71;101025.47;5028870;28;20112;-49
2023/03/12 12:54:22;;;;;;;275.80;200.63;;;;;;;24.35;41.86;101023.66;5034099;28;20030;-49
2023/03/12 12:57:21;;;;;;;264.25;192.35;;;;;;;24.34;41.58;101014.03;5031310;28;20044;-49
2023/03/12 12:59:57;;;;;;;278.45;201.50;;;;;;;24.28;41.83;101010.47;5012545;28;20030;-49
2023/03/12 13:02:29;;;;;;;267.27;199.20;;;;;;;24.27;41.61;101000.84;5012671;28;20022;-48
2023/03/12 13:04:58;;;;;;;260.48;193.27;;;;;;;24.23;42.16;100993.81;5013923;28;20117;-49
2023/03/12 13:07:26;;;;;;;262.92;192.68;;;;;;;24.31;41.74;100993.00;5011937;28;20057;-49
2023/03/12 13:09:56;;;;;;;265.38;194.05;;;;;;;24.21;42.11;100987.66;5014446;28;20033;-50
2023/03/12 13:12:29;;;;;;;258.25;194.95;;;;;;;24.27;41.89;100977.22;5013517;28;20036;-49
2023/03/12 13:14:58;;;;;;;262.85;196.00;;;;;;;24.17;42.18;100974.47;5013326;28;20100;-48
2023/03/12 13:17:36;;;;;;;247.82;183.05;;;;;;;24.14;42.23;100962.22;5041944;28;20072;-48
2023/03/12 13:20:11;;;;;;;248.02;184.20;;;;;;;24.25;42.05;100964.97;5051409;28;20390;-52
2023/03/12 13:22:57;;;;;;;259.50;192.82;;;;;;;24.30;41.87;100952.81;5051027;28;20085;-50
2023/03/12 13:25:44;;;;;;;250.00;183.27;;;;;;;24.24;41.80;100945.75;5047926;28;20040;-51
2023/03/12 13:28:34;;;;;;;250.57;187.63;;;;;;;24.20;42.22;100950.94;5042254;28;20033;-50
2023/03/12 13:31:29;;;;;;;254.05;185.80;;;;;;;24.25;41.83;100938.78;5065341;28;20467;-49
2023/03/12 13:34:18;;;;;;;256.13;185.02;;;;;;;24.38;41.72;100930.16;5047843;28;20037;-51
2023/03/12 13:36:50;;;;;;;248.70;179.70;;;;;;;24.37;41.88;100917.06;5051996;28;20106;-49
2023/03/12 13:39:39;;;;;;;242.48;178.07;;;;;;;24.32;41.34;100896.03;5051213;28;20032;-52
2023/03/12 13:42:27;;;;;;;247.88;176.85;;;;;;;24.23;41.96;100901.16;5050461;28;20083;-49
2023/03/12 13:44:57;;;;;;;237.93;169.77;;;;;;;24.25;41.88;100900.31;5064272;28;20057;-50
2023/03/12 13:47:29;;;;;;;249.32;176.75;;;;;;;24.17;41.92;100894.13;5050513;28;20021;-49
2023/03/12 13:50:12;;;;;;;233.98;175.02;;;;;;;24.29;41.91;100880.28;5050949;28;20108;-52
2023/03/12 13:52:39;;;;;;;247.10;177.10;;;;;;;24.35;41.48;100868.97;5052372;28;20028;-51
2023/03/12 13:55:20;;;;;;;239.75;173.70;;;;;;;24.31;41.77;100859.31;5051761;28;20043;-52
2023/03/12 13:57:57;;;;;;;241.30;175.65;;;;;;;24.22;41.84;100865.34;5050750;28;20087;-52
2023/03/12 14:00:25;;;;;;;238.68;177.90;;;;;;;24.25;41.95;100862.75;5050685;28;20060;-52
2023/03/12 14:03:00;;;;;;;244.25;180.05;;;;;;;24.36;41.51;100855.00;5052276;28;20033;-51
2023/03/12 14:05:28;;;;;;;240.32;177.50;;;;;;;24.35;41.60;100848.00;5050448;28;20099;-53
2023/03/12 14:08:09;;;;;;;244.27;180.68;;;;;;;24.30;41.67;100842.72;5050715;28;20029;-52
2023/03/12 14:10:43;;;;;;;246.70;179.43;;;;;;;24.24;41.78;100838.25;5065228;28;20029;-50
2023/03/12 14:13:38;;;;;;;246.57;183.98;;;;;;;24.33;41.91;100836.63;5052088;28;20079;-49
2023/03/12 14:16:16;;;;;;;249.02;181.98;;;;;;;24.36;42.00;100831.41;5042131;28;20433;-48
2023/03/12 14:18:45;;;;;;;242.77;176.30;;;;;;;24.36;41.36;100824.41;5051901;28;20025;-49
2023/03/12 14:21:16;;;;;;;239.32;172.73;;;;;;;24.33;41.77;100826.13;5052166;28;20029;-52
2023/03/12 14:23:52;;;;;;;220.77;164.90;;;;;;;24.26;41.78;100818.19;5052087;28;20028;-49
2023/03/12 14:26:23;;;;;;;226.43;162.43;;;;;;;24.26;41.66;100817.31;5051589;28;20459;-49
2023/03/12 14:29:16;;;;;;;226.25;165.18;;;;;;;24.26;41.76;100807.72;5050704;28;20025;-49
2023/03/12 14:31:45;;;;;;;223.45;163.75;;;;;;;24.35;41.31;100799.03;5049989;28;20120;-49
2023/03/12 14:34:17;;;;;;;225.57;162.40;;;;;;;24.34;41.62;100799.91;5051541;28;20033;-50
2023/03/12 14:37:09;;;;;;;222.98;162.32;;;;;;;24.36;41.32;100790.31;5051233;28;20390;-49
2023/03/12 14:39:49;;;;;;;229.38;162.38;;;;;;;24.36;41.24;100779.84;5052561;28;20057;-48
2023/03/12 14:42:24;;;;;;;218.48;155.85;;;;;;;24.30;41.78;100781.53;5051026;28;20041;-52
2023/03/12 14:44:58;;;;;;;208.60;149.25;;;;;;;24.25;41.61;100750.03;5051800;28;20036;-49
2023/03/12 14:47:26;;;;;;;217.27;151.80;;;;;;;24.24;41.92;100754.38;5047769;28;20128;-49
2023/03/12 14:49:56;;;;;;;208.48;150.05;;;;;;;24.30;41.44;100758.81;5050517;28;20029;-52
2023/03/12 14:52:27;;;;;;;205.90;143.07;;;;;;;24.30;41.38;100769.31;5051428;28;20025;-50
2023/03/12 14:54:57;;;;;;;204.20;144.40;;;;;;;24.28;41.34;100771.03;5051726;28;20040;-49
2023/03/12 14:57:25;;;;;;;205.32;144.23;;;;;;;24.28;41.65;100771.91;5050144;28;20025;-52
2023/03/12 14:59:55;;;;;;;195.23;140.15;;;;;;;24.22;41.54;100770.97;5051187;28;20048;-51
2023/03/12 15:02:23;;;;;;;201.18;146.15;;;;;;;24.20;41.55;100767.47;5053195;28;20033;-52
2023/03/12 15:04:54;;;;;;;207.90;149.77;;;;;;;24.21;41.44;100763.97;5055390;28;20390;-49
2023/03/12 15:07:29;;;;;;;201.07;146.00;;;;;;;24.18;41.45;100761.31;5054064;28;20032;-49
2023/03/12 15:09:58;;;;;;;212.73;147.43;;;;;;;24.19;41.63;100752.59;5055923;28;20025;-48
2023/03/12 15:12:29;;;;;;;218.50;150.35;;;;;;;24.16;41.86;100747.34;5055612;28;20029;-49
2023/03/12 15:15:23;;;;;;;202.77;145.35;;;;;;;24.17;41.82;100755.22;5053115;28;20081;-48
2023/03/12 15:17:50;;;;;;;192.43;136.00;;;;;;;24.24;41.56;100746.53;5045441;28;20071;-51
2023/03/12 15:20:26;;;;;;;207.63;141.07;;;;;;;24.21;41.79;100754.38;5054812;28;20032;-50
2023/03/12 15:22:53;;;;;;;205.07;143.65;;;;;;;24.18;41.50;100759.59;5055124;28;20099;-50
2023/03/12 15:25:22;;;;;;;201.15;140.15;;;;;;;24.26;41.63;100755.28;5055294;28;20029;-50
2023/03/12 15:28:02;;;;;;;203.13;146.27;;;;;;;24.26;41.31;100749.19;5054832;28;20037;-51
2023/03/12 15:30:30;;;;;;;202.25;143.85;;;;;;;24.22;41.51;100743.03;5054617;28;20386;-52
2023/03/12 15:33:17;;;;;;;201.20;144.15;;;;;;;24.16;41.73;100744.72;5050695;28;20017;-52
2023/03/12 15:36:04;;;;;;;222.52;149.80;;;;;;;24.28;41.28;100744.81;5048948;28;20509;-53
2023/03/12 15:38:37;;;;;;;211.23;143.70;;;;;;;24.20;41.34;100746.50;5054180;28;20132;-48
2023/03/12 15:41:08;;;;;;;202.93;140.02;;;;;;;24.18;41.55;100745.59;5054249;28;20024;-51
2023/03/12 15:43:36;;;;;;;206.93;147.65;;;;;;;24.17;41.54;100751.69;5054770;28;20427;-49
2023/03/12 15:46:05;;;;;;;202.07;138.93;;;;;;;24.15;41.70;100753.47;5054107;28;20474;-51
2023/03/12 15:48:38;;;;;;;191.73;133.30;;;;;;;24.11;41.21;100737.69;5051295;28;20044;-49
2023/03/12 15:51:27;;;;;;;183.75;129.15;;;;;;;24.29;41.00;100746.59;5053516;28;20028;-50
2023/03/12 15:54:15;;;;;;;190.13;128.80;;;;;;;24.22;41.48;100744.75;5053611;28;20025;-49
2023/03/12 15:56:42;;;;;;;188.00;129.52;;;;;;;24.21;41.14;100743.00;5052704;28;20052;-48
2023/03/12 15:59:23;;;;;;;183.07;126.38;;;;;;;24.23;41.37;100749.16;5052103;28;20079;-49
2023/03/12 16:01:53;;;;;;;174.00;123.18;;;;;;;24.35;40.94;100743.13;5050937;28;20457;-48
2023/03/12 16:04:22;;;;;;;176.05;122.10;;;;;;;24.43;40.76;100751.91;5054381;28;20032;-49
2023/03/12 16:06:52;;;;;;;174.18;120.40;;;;;;;24.51;40.51;100744.09;5054451;28;20037;-48
2023/03/12 16:09:26;;;;;;;174.73;118.72;;;;;;;24.39;40.75;100742.28;5052597;28;20747;-50
2023/03/12 16:11:55;;;;;;;170.40;118.43;;;;;;;24.41;40.75;100733.56;5054320;28;20834;-47
2023/03/12 16:14:25;;;;;;;162.00;114.55;;;;;;;24.37;40.50;100738.78;5052368;28;20029;-48
2023/03/12 16:16:52;;;;;;;153.88;107.88;;;;;;;24.31;40.86;100738.72;5052873;28;20099;-48
2023/03/12 16:19:21;;;;;;;164.25;112.57;;;;;;;24.39;40.82;100723.94;5052185;28;20476;-49
2023/03/12 16:21:50;;;;;;;154.55;109.18;;;;;;;24.42;40.24;100709.09;5053949;28;20589;-48
2023/03/12 16:24:18;;;;;;;143.93;101.50;;;;;;;24.49;40.27;100717.03;5054051;28;20039;-49
2023/03/12 16:26:51;;;;;;;150.95;104.13;;;;;;;24.49;40.34;100707.41;5050249;28;20498;-49
2023/03/12 16:29:19;;;;;;;145.68;100.47;;;;;;;24.41;40.43;100704.72;5052677;28;20025;-49
2023/03/12 16:31:57;;;;;;;137.55;95.05;;;;;;;24.39;40.51;100701.22;5053861;28;20039;-51
2023/03/12 16:34:26;;;;;;;137.85;96.00;;;;;;;24.32;40.51;100699.44;5050889;28;20035;-48
2023/03/12 16:36:54;;;;;;;139.15;92.65;;;;;;;24.39;40.52;100701.22;5053649;28;20089;-50
2023/03/12 16:39:22;;;;;;;137.55;93.45;;;;;;;24.41;40.28;100703.81;5052078;28;20021;-51
2023/03/12 16:41:50;;;;;;;138.32;93.55;;;;;;;24.38;40.20;100699.44;5052237;28;20090;-49
2023/03/12 16:44:20;;;;;;;147.15;97.85;;;;;;;24.26;40.73;100689.75;5053709;28;20025;-48
2023/03/12 16:46:49;;;;;;;140.82;97.80;;;;;;;24.36;40.35;100680.22;5053572;28;20029;-48
2023/03/12 16:49:19;;;;;;;140.73;97.47;;;;;;;24.37;40.38;100681.97;5049141;28;20460;-52
2023/03/12 16:51:48;;;;;;;130.75;90.18;;;;;;;24.49;39.89;100686.41;5053695;28;20036;-49
2023/03/12 16:54:16;;;;;;;136.32;86.85;;;;;;;24.46;39.73;100675.91;5053088;28;20025;-49
2023/03/12 16:56:46;;;;;;;130.93;88.75;;;;;;;24.34;40.13;100675.84;5053115;28;20048;-50
2023/03/12 16:59:24;;;;;;;132.70;90.95;;;;;;;24.33;40.25;100674.06;5052885;28;20022;-52
2023/03/12 17:01:53;;;;;;;124.82;85.90;;;;;;;24.32;39.91;100667.97;5053357;28;20025;-49
2023/03/12 17:04:21;;;;;;;137.40;94.90;;;;;;;24.39;40.09;100659.25;5053267;28;20478;-50
2023/03/12 17:06:49;;;;;;;130.77;87.35;;;;;;;24.41;39.85;100654.91;5053465;28;20117;-49
2023/03/12 17:09:16;;;;;;;124.00;85.50;;;;;;;24.40;39.72;100653.16;5052989;28;20029;-50
2023/03/12 17:11:45;;;;;;;144.38;91.35;;;;;;;24.38;39.78;100641.78;5052535;28;20028;-50
2023/03/12 17:14:20;;;;;;;132.00;85.93;;;;;;;24.40;39.75;100652.28;5051458;28;20083;-49
2023/03/12 17:16:48;;;;;;;121.63;82.95;;;;;;;24.33;40.03;100642.63;5051630;28;20048;-49
2023/03/12 17:19:16;;;;;;;129.90;86.95;;;;;;;24.31;39.99;100640.00;5052645;28;20032;-50
2023/03/12 17:21:43;;;;;;;128.25;85.70;;;;;;;24.26;40.23;100637.31;5052964;28;20562;-53
2023/03/12 17:24:13;;;;;;;124.32;84.60;;;;;;;24.39;39.50;100640.03;5052223;28;20031;-49
2023/03/12 17:26:42;;;;;;;130.25;84.40;;;;;;;24.28;39.76;100632.09;5053174;28;20108;-48
2023/03/12 17:29:09;;;;;;;130.68;84.10;;;;;;;24.26;39.88;100633.84;5053370;28;20033;-49
2023/03/12 17:31:36;;;;;;;125.20;84.47;;;;;;;24.28;40.01;100635.59;5052962;28;20427;-51
2023/03/12 17:34:05;;;;;;;130.98;85.97;;;;;;;24.18;40.01;100622.41;5053100;28;20021;-53
2023/03/12 17:36:35;;;;;;;135.30;86.88;;;;;;;24.25;39.71;100625.09;5053346;28;20025;-52
2023/03/12 17:39:03;;;;;;;127.53;81.85;;;;;;;24.24;39.86;100633.81;5053131;28;20029;-51
2023/03/12 17:41:32;;;;;;;124.45;81.05;;;;;;;24.17;40.17;100625.91;5053121;28;20029;-50
2023/03/12 17:44:00;;;;;;;117.93;82.30;;;;;;;24.19;40.04;100625.06;5051810;28;20028;-49
2023/03/12 17:46:30;;;;;;;128.15;81.95;;;;;;;24.19;40.12;100622.44;5053125;28;20471;-51
2023/03/12 17:48:57;;;;;;;124.93;81.75;;;;;;;24.16;40.04;100618.94;5052720;28;20020;-52
2023/03/12 17:51:25;;;;;;;116.35;78.82;;;;;;;24.08;39.90;100626.72;5051633;28;20387;-53
2023/03/12 17:53:53;;;;;;;121.38;81.82;;;;;;;24.18;40.01;100618.06;5052997;28;20482;-49
2023/03/12 17:56:20;;;;;;;119.78;82.35;;;;;;;24.30;39.37;100621.63;5051734;28;20033;-51
2023/03/12 17:58:48;;;;;;;125.15;80.80;;;;;;;24.21;39.74;100625.94;5052921;28;20479;-49
2023/03/12 18:01:16;;;;;;;123.05;83.35;;;;;;;24.16;39.94;100626.78;5052996;28;20025;-50
2023/03/12 18:03:44;;;;;;;130.07;82.85;;;;;;;24.18;39.99;100623.31;5052691;28;20035;-48
2023/03/12 18:06:13;;;;;;;127.43;86.32;;;;;;;24.12;39.96;100625.88;5052661;28;20046;-49
2023/03/12 18:08:40;;;;;;;128.40;83.75;;;;;;;24.08;40.08;100629.34;5051577;28;20379;-49
2023/03/12 18:11:09;;;;;;;125.70;82.32;;;;;;;24.13;39.87;100635.50;5053036;28;20025;-49
2023/03/12 18:13:36;;;;;;;125.82;79.80;;;;;;;24.04;40.00;100631.06;5035190;28;20031;-52
2023/03/12 18:16:05;;;;;;;122.18;80.18;;;;;;;24.14;39.85;100632.00;5052466;28;20099;-53
2023/03/12 18:18:32;;;;;;;120.72;80.30;;;;;;;24.16;39.83;100630.28;5052590;28;20061;-49
2023/03/12 18:21:01;;;;;;;122.97;80.90;;;;;;;24.15;39.48;100632.91;5052824;28;20025;-49
2023/03/12 18:23:29;;;;;;;109.35;76.05;;;;;;;24.15;39.33;100638.16;5051284;28;20025;-53
2023/03/12 18:25:56;;;;;;;113.78;76.25;;;;;;;24.15;39.47;100644.25;5052695;28;20419;-49
2023/03/12 18:28:24;;;;;;;118.93;79.30;;;;;;;24.16;39.49;100648.63;5052685;28;20501;-50
2023/03/12 18:30:54;;;;;;;117.57;76.07;;;;;;;24.14;39.73;100645.09;5050987;28;20538;-52
2023/03/12 18:33:21;;;;;;;116.97;78.45;;;;;;;24.14;39.55;100652.97;5052301;28;20029;-50
2023/03/12 18:35:50;;;;;;;119.75;76.68;;;;;;;24.12;39.42;100650.34;5051169;28;20430;-52
2023/03/12 18:38:17;;;;;;;120.38;76.90;;;;;;;24.10;39.82;100654.69;5056165;28;20024;-52
2023/03/12 18:40:46;;;;;;;118.00;75.38;;;;;;;24.11;39.61;100658.19;5056483;28;20095;-51
2023/03/12 18:43:13;;;;;;;112.15;76.55;;;;;;;24.10;39.49;100653.81;5056910;28;20036;-49
2023/03/12 18:45:42;;;;;;;120.07;77.28;;;;;;;24.09;39.49;100662.53;5056367;28;20705;-49
2023/03/12 18:48:11;;;;;;;116.80;74.50;;;;;;;24.04;39.37;100653.78;5056427;28;20163;-50
2023/03/12 18:50:38;;;;;;;109.57;73.43;;;;;;;24.12;39.38;100666.06;5056264;28;20467;-49
2023/03/12 18:53:07;;;;;;;110.85;72.65;;;;;;;24.11;39.37;100676.53;5055825;28;20056;-49
2023/03/12 18:55:35;;;;;;;119.07;76.82;;;;;;;24.07;39.30;100672.16;5056048;28;20039;-49
2023/03/12 18:58:03;;;;;;;106.18;71.35;;;;;;;24.01;39.69;100670.34;5038628;28;20067;-50
2023/03/12 19:00:30;;;;;;;103.80;70.20;;;;;;;24.00;39.54;100673.81;5056207;28;20052;-50
2023/03/12 19:02:59;;;;;;;111.28;67.78;;;;;;;24.00;39.75;100673.81;5056061;28;20033;-48
2023/03/12 19:05:26;;;;;;;109.70;69.60;;;;;;;24.10;39.52;100680.00;5055683;28;20032;-53
2023/03/12 19:07:54;;;;;;;100.63;66.57;;;;;;;24.08;39.24;100674.78;5056333;28;20029;-49
2023/03/12 19:10:21;;;;;;;97.63;66.00;;;;;;;24.07;39.54;100677.41;5055877;28;20036;-52
2023/03/12 19:12:48;;;;;;;102.55;65.18;;;;;;;23.89;39.91;100680.69;5054359;28;20021;-50
2023/03/12 19:15:15;;;;;;;99.68;64.35;;;;;;;23.99;39.34;100679.94;5054075;28;20158;-50
2023/03/12 19:17:43;;;;;;;96.35;62.33;;;;;;;24.02;39.33;100679.09;5055887;28;20037;-49
2023/03/12 19:20:11;;;;;;;88.75;60.28;;;;;;;24.02;39.42;100679.94;5054945;28;20040;-50
2023/03/12 19:22:38;;;;;;;91.25;59.35;;;;;;;24.03;39.64;100679.09;5055352;28;20029;-49
2023/03/12 19:25:05;;;;;;;93.10;58.05;;;;;;;23.97;39.48;100684.28;5054066;28;20115;-50
2023/03/12 19:27:34;;;;;;;90.25;55.28;;;;;;;24.06;39.59;100683.50;5055553;28;20029;-49
2023/03/12 19:30:01;;;;;;;87.22;54.88;;;;;;;24.10;39.34;100683.53;5054814;28;20037;-50
2023/03/12 19:32:30;;;;;;;83.88;53.40;;;;;;;24.09;39.30;100691.34;5055500;28;20031;-49
2023/03/12 19:34:57;;;;;;;83.38;50.90;;;;;;;24.06;39.12;100686.97;5053530;28;20029;-49
2023/03/12 19:37:24;;;;;;;79.47;50.42;;;;;;;24.12;39.60;100676.56;5055158;28;20029;-49
2023/03/12 19:39:52;;;;;;;83.80;51.50;;;;;;;24.07;39.47;100682.63;5054745;28;20032;-49
2023/03/12 19:42:19;;;;;;;78.93;50.20;;;;;;;24.10;39.28;100674.78;5053574;28;20071;-50
2023/03/12 19:44:48;;;;;;;80.28;50.92;;;;;;;24.09;39.48;100673.91;5054806;28;20481;-52
2023/03/12 19:47:15;;;;;;;73.15;46.70;;;;;;;24.12;39.16;100675.66;5054404;28;20028;-50
2023/03/12 19:49:42;;;;;;;75.50;48.47;;;;;;;24.12;39.28;100680.91;5053292;28;20044;-51
2023/03/12 19:52:10;;;;;;;73.13;47.05;;;;;;;24.11;39.56;100668.66;5053415;28;20369;-50
2023/03/12 19:54:37;;;;;;;73.43;48.00;;;;;;;24.17;39.57;100668.72;5053856;28;20103;-52
2023/03/12 19:57:04;;;;;;;72.15;45.97;;;;;;;24.17;39.52;100666.09;5054455;28;20037;-49
2023/03/12 19:59:32;;;;;;;70.63;45.60;;;;;;;24.07;39.41;100662.53;5053187;28;20033;-51
2023/03/12 20:02:00;;;;;;;78.22;47.88;;;;;;;24.05;39.82;100653.78;5055005;28;20025;-48
2023/03/12 20:04:28;;;;;;;74.10;47.28;;;;;;;24.14;39.37;100650.34;5054614;28;20044;-48
2023/03/12 20:06:55;;;;;;;73.10;48.15;;;;;;;24.08;39.77;100648.56;5054299;28;20155;-48
2023/03/12 20:09:22;;;;;;;74.93;47.50;;;;;;;24.11;39.70;100651.22;5054261;28;20029;-49
2023/03/12 20:11:50;;;;;;;73.15;47.53;;;;;;;24.01;39.74;100638.03;5054575;28;20474;-50
2023/03/12 20:14:17;;;;;;;70.57;46.35;;;;;;;24.02;40.06;100639.78;5054648;28;20033;-48
2023/03/12 20:16:44;;;;;;;72.65;47.30;;;;;;;24.11;39.53;100631.97;5054018;28;20045;-50
2023/03/12 20:19:11;;;;;;;76.57;48.65;;;;;;;23.98;39.93;100625.78;5053995;28;20555;-49
2023/03/12 20:21:39;;;;;;;75.43;47.47;;;;;;;24.07;39.50;100627.59;5054220;28;20751;-49
2023/03/12 20:24:06;;;;;;;82.05;50.55;;;;;;;24.09;39.79;100623.22;5054724;28;20024;-50
2023/03/12 20:26:34;;;;;;;79.45;49.38;;;;;;;24.14;39.92;100621.53;5054056;28;20063;-47
2023/03/12 20:29:03;;;;;;;74.53;46.63;;;;;;;24.15;39.87;100622.41;5052679;28;20035;-47
2023/03/12 20:31:31;;;;;;;72.85;47.45;;;;;;;24.12;39.35;100613.66;5053717;28;20467;-47
2023/03/12 20:33:58;;;;;;;76.03;48.22;;;;;;;24.00;39.90;100616.16;5053910;28;20029;-47
2023/03/12 20:36:26;;;;;;;67.53;45.65;;;;;;;23.96;39.82;100615.28;5053669;28;20488;-47
2023/03/12 20:38:53;;;;;;;76.70;47.92;;;;;;;24.06;39.47;100611.00;5052727;28;20029;-48
2023/03/12 20:41:20;;;;;;;75.78;48.30;;;;;;;24.02;39.62;100605.72;5053647;28;20029;-47
2023/03/12 20:43:48;;;;;;;74.85;47.05;;;;;;;23.98;40.02;100615.31;5054007;28;20032;-49
2023/03/12 20:46:15;;;;;;;71.63;47.85;;;;;;;24.07;39.60;100607.50;5052771;28;20494;-48
2023/03/12 20:48:42;;;;;;;74.68;47.42;;;;;;;24.06;39.89;100608.38;5053708;28;20061;-47
2023/03/12 20:51:10;;;;;;;77.25;49.20;;;;;;;24.16;39.36;100605.81;5053393;28;20106;-48
2023/03/12 20:53:38;;;;;;;71.85;46.75;;;;;;;24.08;39.88;100597.88;5053800;28;20032;-47
2023/03/12 20:59:29;;;;;;;71.53;46.88;;;;;;;24.10;39.56;100589.19;5047924;28;20548;-48
2023/03/12 21:01:57;;;;;;;69.93;46.28;;;;;;;24.05;39.59;100576.94;5053423;28;20033;-48
